Time;durP1;ratioP1;P1;durP2;ratioP2;P2;SDS_P1;SDS_P2;PMS_P1;PMS_P2;Temp;Humidity;BMP_temperature;BMP_pressure;BME280_temperature;BME280_humidity;BME280_pressure;Samples;Min_cycle;Max_cycle;Signal;HPM_P1;HPM_P2
2024/04/18 00:01:08;;;;;;;4.97;3.28;;;;;;;6.31;64.23;93647.66;5409589;26;20007;-73
2024/04/18 00:03:33;;;;;;;5.53;3.47;;;;;;;6.36;64.22;93639.66;5411781;26;20178;-73
2024/04/18 00:05:59;;;;;;;3.67;2.78;;;;;;;6.34;64.16;93639.34;5410173;26;20000;-73
2024/04/18 00:08:24;;;;;;;3.42;2.60;;;;;;;6.36;63.75;93647.06;5411374;26;20014;-72
2024/04/18 00:10:53;;;;;;;4.20;3.20;;;;;;;6.26;64.05;93638.06;5410915;26;20011;-72
2024/04/18 00:13:19;;;;;;;3.50;2.72;;;;;;;6.30;64.19;93637.91;5409802;26;19996;-72
2024/04/18 00:15:44;;;;;;;4.03;3.00;;;;;;;6.18;64.13;93633.25;5412198;26;20076;-75
2024/04/18 00:18:09;;;;;;;4.00;2.65;;;;;;;6.11;64.03;93642.44;5411355;26;20013;-73
2024/04/18 00:20:35;;;;;;;5.47;3.03;;;;;;;6.00;64.82;93650.19;5415166;26;20290;-73
2024/04/18 00:23:00;;;;;;;4.35;3.00;;;;;;;5.99;65.21;93654.13;5413363;26;20010;-73
2024/04/18 00:25:25;;;;;;;3.42;2.67;;;;;;;6.02;65.04;93654.03;5415064;26;19995;-73
2024/04/18 00:27:51;;;;;;;3.20;2.58;;;;;;;6.00;64.91;93655.66;5414350;26;20010;-73
2024/04/18 00:30:17;;;;;;;4.32;3.05;;;;;;;6.04;64.80;93642.69;5414327;26;20010;-73
2024/04/18 00:32:42;;;;;;;3.58;2.38;;;;;;;6.15;64.18;93642.34;5415089;26;20008;-73
2024/04/18 00:35:09;;;;;;;3.97;2.53;;;;;;;6.11;64.00;93637.75;5413547;26;20071;-74
2024/04/18 00:37:35;;;;;;;4.00;2.80;;;;;;;6.00;64.69;93628.38;5415017;26;19999;-72
2024/04/18 00:40:01;;;;;;;2.95;2.28;;;;;;;6.02;64.41;93625.97;5413703;26;20006;-73
2024/04/18 00:42:26;;;;;;;4.05;2.80;;;;;;;6.01;64.55;93627.16;5414775;26;20000;-73
2024/04/18 00:44:51;;;;;;;3.80;2.85;;;;;;;5.96;64.77;93641.34;5413415;26;20065;-73
2024/04/18 00:47:17;;;;;;;3.90;3.15;;;;;;;6.01;64.89;93644.31;5414627;26;20397;-73
2024/04/18 00:49:42;;;;;;;3.25;2.63;;;;;;;6.05;64.73;93639.50;5414409;26;19999;-73
2024/04/18 00:52:11;;;;;;;3.95;2.88;;;;;;;6.01;64.68;93627.94;5413515;26;20000;-73
2024/04/18 00:54:37;;;;;;;4.45;3.22;;;;;;;5.98;64.73;93625.34;5412787;26;20009;-73
2024/04/18 00:57:03;;;;;;;4.85;3.35;;;;;;;5.97;65.04;93626.53;5413212;26;20045;-73
2024/04/18 00:59:28;;;;;;;4.43;3.30;;;;;;;5.96;64.57;93616.81;5414247;26;19999;-74
2024/04/18 01:01:54;;;;;;;4.85;3.00;;;;;;;5.87;64.16;93601.09;5413035;26;20397;-74
2024/04/18 01:04:19;;;;;;;3.80;2.83;;;;;;;5.89;64.15;93617.78;5414106;26;20007;-74
2024/04/18 01:06:47;;;;;;;5.03;3.63;;;;;;;5.91;64.64;93617.31;5411540;26;19996;-73
2024/04/18 01:09:12;;;;;;;4.30;3.30;;;;;;;5.84;64.63;93629.22;5413816;26;20292;-73
2024/04/18 01:11:38;;;;;;;4.35;2.92;;;;;;;5.93;64.68;93634.81;5414150;26;20163;-73
2024/04/18 01:14:08;;;;;;;4.78;3.03;;;;;;;5.92;64.44;93636.03;5412457;26;19999;-72
2024/04/18 01:16:33;;;;;;;3.75;2.95;;;;;;;5.91;64.38;93629.06;5414095;26;19999;-72
2024/04/18 01:18:59;;;;;;;3.90;3.20;;;;;;;5.92;63.94;93630.59;5412585;26;19995;-74
2024/04/18 01:21:24;;;;;;;4.85;3.05;;;;;;;5.89;63.51;93647.03;5413556;26;20002;-73
2024/04/18 01:23:49;;;;;;;4.50;3.70;;;;;;;5.84;64.00;93653.78;5411133;26;20066;-73
2024/04/18 01:26:17;;;;;;;4.53;3.50;;;;;;;5.78;64.42;93633.72;5414093;26;20415;-72
2024/04/18 01:28:43;;;;;;;6.45;3.42;;;;;;;5.74;64.30;93644.00;5413873;26;20020;-72
2024/04/18 01:31:08;;;;;;;4.68;3.45;;;;;;;5.75;64.79;93643.53;5413261;26;20006;-73
2024/04/18 01:33:33;;;;;;;5.00;3.78;;;;;;;5.75;64.55;93623.69;5414268;26;20000;-73
2024/04/18 01:35:59;;;;;;;3.95;3.10;;;;;;;5.89;64.30;93639.59;5412980;26;20444;-73
2024/04/18 01:38:24;;;;;;;4.45;3.20;;;;;;;5.95;63.94;93634.38;5414236;26;19995;-73
2024/04/18 01:40:49;;;;;;;4.50;3.10;;;;;;;5.95;63.97;93645.28;5410982;26;20061;-74
2024/04/18 01:43:15;;;;;;;4.45;3.33;;;;;;;5.91;63.72;93626.34;5414020;26;20003;-72
2024/04/18 01:45:40;;;;;;;4.65;2.97;;;;;;;5.94;63.96;93633.63;5412601;26;20072;-73
2024/04/18 01:48:06;;;;;;;4.78;3.38;;;;;;;6.07;63.00;93628.13;5412032;26;20421;-73
2024/04/18 01:50:31;;;;;;;4.93;3.13;;;;;;;6.00;63.28;93634.59;5413542;26;20006;-73
2024/04/18 01:52:58;;;;;;;4.20;2.92;;;;;;;6.00;63.19;93640.06;5412370;26;20064;-73
2024/04/18 01:55:23;;;;;;;4.47;3.22;;;;;;;5.95;63.25;93646.06;5413906;26;20032;-74
2024/04/18 01:57:49;;;;;;;4.78;3.42;;;;;;;5.88;63.68;93637.31;5411789;26;19992;-73
2024/04/18 02:00:14;;;;;;;4.60;3.05;;;;;;;5.95;63.59;93640.59;5413715;26;20408;-73
2024/04/18 02:02:39;;;;;;;4.25;3.30;;;;;;;5.97;63.36;93651.09;5411983;26;19996;-71
2024/04/18 02:05:05;;;;;;;4.18;3.13;;;;;;;6.04;63.27;93645.41;5413774;26;19999;-72
2024/04/18 02:07:31;;;;;;;4.03;3.28;;;;;;;6.05;63.13;93646.94;5412846;26;20003;-72
2024/04/18 02:09:56;;;;;;;4.35;2.83;;;;;;;6.04;63.20;93648.91;5411182;26;19999;-73
2024/04/18 02:12:21;;;;;;;4.85;3.28;;;;;;;6.00;63.43;93656.41;5413558;26;20002;-73
2024/04/18 02:14:47;;;;;;;4.32;3.10;;;;;;;5.98;63.43;93664.28;5411283;26;20007;-73
2024/04/18 02:17:13;;;;;;;3.78;2.97;;;;;;;5.99;62.91;93674.00;5413443;26;20110;-72
2024/04/18 02:19:38;;;;;;;6.55;3.35;;;;;;;5.93;63.53;93675.75;5411558;26;19991;-73
2024/04/18 02:22:04;;;;;;;4.72;3.10;;;;;;;5.94;63.83;93676.50;5413149;26;20001;-73
2024/04/18 02:24:31;;;;;;;4.20;3.00;;;;;;;5.95;63.38;93645.28;5409665;26;20446;-73
2024/04/18 02:26:57;;;;;;;4.28;3.15;;;;;;;6.07;63.37;93674.53;5411619;26;20072;-73
2024/04/18 02:29:22;;;;;;;3.78;3.00;;;;;;;6.09;63.37;93656.53;5411334;26;19991;-73
2024/04/18 02:31:48;;;;;;;4.90;3.40;;;;;;;6.16;62.60;93660.22;5409395;26;20355;-73
2024/04/18 02:34:13;;;;;;;4.53;3.40;;;;;;;6.17;62.67;93659.78;5411505;26;19991;-72
2024/04/18 02:36:39;;;;;;;5.03;3.65;;;;;;;6.06;62.70;93662.09;5409034;26;20040;-73
2024/04/18 02:39:04;;;;;;;4.68;3.28;;;;;;;6.01;63.01;93660.66;5411021;26;19999;-73
2024/04/18 02:41:30;;;;;;;5.10;3.75;;;;;;;5.98;62.98;93672.47;5410774;26;19992;-73
2024/04/18 02:43:55;;;;;;;4.88;3.35;;;;;;;6.02;63.12;93680.53;5411296;26;19995;-73
2024/04/18 02:46:21;;;;;;;5.70;4.15;;;;;;;6.00;63.49;93667.34;5411058;26;20006;-73
2024/04/18 02:48:46;;;;;;;4.53;3.25;;;;;;;6.00;62.98;93659.16;5411107;26;19998;-73
2024/04/18 02:51:12;;;;;;;5.47;4.03;;;;;;;6.04;63.42;93664.50;5411115;26;20306;-73
2024/04/18 02:53:37;;;;;;;6.15;3.85;;;;;;;6.07;63.22;93669.81;5410415;26;20003;-73
2024/04/18 02:56:03;;;;;;;5.53;3.58;;;;;;;6.06;63.00;93665.56;5410825;26;19992;-73
2024/04/18 02:58:28;;;;;;;4.93;3.38;;;;;;;6.09;62.66;93672.13;5410218;26;20018;-72
2024/04/18 03:00:54;;;;;;;4.53;3.20;;;;;;;6.00;63.10;93659.16;5410681;26;20007;-74
2024/04/18 03:03:19;;;;;;;4.00;3.50;;;;;;;6.09;62.90;93664.72;5410172;26;20478;-73
2024/04/18 03:05:44;;;;;;;5.22;4.20;;;;;;;6.02;62.94;93656.75;5410885;26;20054;-73
2024/04/18 03:08:10;;;;;;;5.93;3.95;;;;;;;6.08;62.85;93670.63;5410798;26;20390;-73
2024/04/18 03:10:35;;;;;;;7.55;3.80;;;;;;;5.94;63.08;93652.72;5410317;26;20027;-73
2024/04/18 03:13:00;;;;;;;5.15;3.35;;;;;;;6.07;62.76;93669.81;5410656;26;20028;-73
2024/04/18 03:15:26;;;;;;;5.50;3.90;;;;;;;6.02;63.33;93673.13;5409635;26;19995;-72
2024/04/18 03:17:53;;;;;;;4.88;3.22;;;;;;;5.96;63.47;93674.84;5410596;26;20064;-73
2024/04/18 03:20:21;;;;;;;5.47;4.63;;;;;;;5.97;63.38;93673.69;5408449;26;20006;-73
2024/04/18 03:22:47;;;;;;;5.07;3.97;;;;;;;5.86;63.75;93687.63;5410480;26;20007;-73
2024/04/18 03:25:12;;;;;;;5.60;3.83;;;;;;;5.81;63.40;93677.25;5410266;26;20003;-74
2024/04/18 03:27:38;;;;;;;5.95;4.07;;;;;;;5.79;63.78;93681.59;5410834;26;19999;-73
2024/04/18 03:30:03;;;;;;;4.75;3.83;;;;;;;5.76;64.43;93680.50;5410452;26;20000;-72
2024/04/18 03:32:29;;;;;;;5.85;4.03;;;;;;;5.79;64.35;93676.13;5409889;26;20001;-73
2024/04/18 03:34:54;;;;;;;5.20;3.47;;;;;;;5.91;63.94;93677.34;5410364;26;19995;-73
2024/04/18 03:37:20;;;;;;;5.15;4.03;;;;;;;5.80;63.95;93669.50;5409978;26;20007;-73
2024/04/18 03:39:46;;;;;;;4.68;3.50;;;;;;;5.88;64.12;93667.31;5410552;26;20414;-73
2024/04/18 03:42:11;;;;;;;4.88;3.65;;;;;;;5.82;64.30;93673.31;5409182;26;20327;-73
2024/04/18 03:44:36;;;;;;;6.65;4.35;;;;;;;5.92;63.90;93676.19;5410316;26;20011;-73
2024/04/18 03:47:02;;;;;;;5.95;4.15;;;;;;;5.84;64.33;93678.31;5409892;26;20072;-73
2024/04/18 03:49:28;;;;;;;5.93;4.47;;;;;;;5.87;64.19;93674.75;5408962;26;20368;-73
2024/04/18 03:51:54;;;;;;;6.13;3.55;;;;;;;5.86;64.13;93671.25;5413146;26;20010;-73
2024/04/18 03:54:20;;;;;;;5.72;4.03;;;;;;;5.87;64.10;93677.47;5412690;26;19996;-71
2024/04/18 03:56:45;;;;;;;7.10;4.35;;;;;;;5.92;63.57;93685.13;5413719;26;20003;-73
2024/04/18 03:59:11;;;;;;;5.03;3.90;;;;;;;5.94;63.71;93690.16;5412464;26;20000;-72
2024/04/18 04:01:36;;;;;;;6.25;4.25;;;;;;;5.97;63.29;93692.78;5413661;26;20007;-73
2024/04/18 04:04:01;;;;;;;5.45;3.80;;;;;;;5.89;63.39;93701.56;5412374;26;20005;-73
2024/04/18 04:06:27;;;;;;;5.80;4.50;;;;;;;5.81;63.36;93690.88;5382077;26;19991;-73
2024/04/18 04:08:52;;;;;;;7.95;4.15;;;;;;;5.98;62.63;93709.91;5413414;26;20500;-73
2024/04/18 04:11:18;;;;;;;5.63;4.85;;;;;;;5.98;62.97;93712.63;5412577;26;20007;-73
2024/04/18 04:13:43;;;;;;;6.60;4.43;;;;;;;5.88;63.14;93721.88;5413289;26;20433;-73
2024/04/18 04:16:09;;;;;;;5.45;4.30;;;;;;;5.97;62.92;93727.47;5412080;26;19999;-73
2024/04/18 04:18:34;;;;;;;5.82;4.28;;;;;;;5.95;63.35;93719.72;5413146;26;20007;-73
2024/04/18 04:21:00;;;;;;;5.63;4.10;;;;;;;5.96;63.13;93725.94;5412253;26;19999;-73
2024/04/18 04:23:25;;;;;;;5.15;3.90;;;;;;;5.95;63.11;93729.84;5413232;26;20010;-73
2024/04/18 04:25:50;;;;;;;7.07;5.15;;;;;;;5.94;63.65;93742.72;5413058;26;19996;-71
2024/04/18 04:28:16;;;;;;;8.02;5.13;;;;;;;5.92;63.69;93736.19;5413131;26;20330;-72
2024/04/18 04:30:41;;;;;;;4.93;3.80;;;;;;;5.98;63.49;93740.66;5413328;26;20037;-74
2024/04/18 04:33:07;;;;;;;8.10;4.93;;;;;;;6.02;63.62;93762.38;5412689;26;20007;-72
2024/04/18 04:35:32;;;;;;;6.82;4.47;;;;;;;6.02;63.56;93765.88;5413556;26;20337;-74
2024/04/18 04:37:58;;;;;;;5.40;4.13;;;;;;;6.03;63.42;93761.97;5412540;26;20037;-74
2024/04/18 04:40:23;;;;;;;7.18;5.32;;;;;;;6.08;63.27;93771.56;5413038;26;19995;-74
2024/04/18 04:42:48;;;;;;;10.07;5.20;;;;;;;6.09;63.31;93778.56;5412271;26;19999;-73
2024/04/18 04:45:14;;;;;;;7.50;5.25;;;;;;;6.13;63.27;93782.69;5411243;26;20062;-73
2024/04/18 04:47:39;;;;;;;6.18;4.43;;;;;;;6.20;62.81;93784.44;5411402;26;20006;-73
2024/04/18 04:50:05;;;;;;;6.40;4.47;;;;;;;6.17;63.30;93790.00;5412666;26;20149;-73
2024/04/18 04:52:30;;;;;;;5.47;4.30;;;;;;;6.26;63.03;93796.34;5410802;26;20337;-72
2024/04/18 04:54:56;;;;;;;8.25;4.88;;;;;;;6.28;62.63;93804.09;5411975;26;19996;-74
2024/04/18 04:57:21;;;;;;;7.07;5.53;;;;;;;6.29;63.04;93805.63;5410774;26;20006;-73
2024/04/18 04:59:46;;;;;;;6.43;5.03;;;;;;;6.27;63.17;93794.38;5411919;26;19999;-73
2024/04/18 05:02:12;;;;;;;7.22;5.03;;;;;;;6.27;63.34;93813.47;5411497;26;20007;-74
2024/04/18 05:04:37;;;;;;;7.05;5.32;;;;;;;6.20;63.44;93795.38;5412201;26;20072;-74
2024/04/18 05:07:03;;;;;;;8.85;5.15;;;;;;;6.36;63.43;93808.13;5410694;26;20007;-73
2024/04/18 05:09:28;;;;;;;8.25;5.22;;;;;;;6.42;63.07;93811.84;5412108;26;19999;-73
2024/04/18 05:11:53;;;;;;;6.22;4.85;;;;;;;6.50;63.10;93815.88;5412001;26;20030;-73
2024/04/18 05:14:22;;;;;;;6.00;4.57;;;;;;;6.50;62.66;93824.09;5412021;26;20383;-73
2024/04/18 05:16:48;;;;;;;6.88;4.68;;;;;;;6.60;61.14;93825.72;5411705;26;20027;-74
2024/04/18 05:19:13;;;;;;;6.78;4.07;;;;;;;6.59;61.09;93820.69;5412076;26;19999;-73
2024/04/18 05:21:38;;;;;;;5.95;4.57;;;;;;;6.57;61.72;93823.09;5412045;26;20041;-73
2024/04/18 05:24:04;;;;;;;6.57;4.50;;;;;;;6.61;61.78;93826.47;5412720;26;19999;-73
2024/04/18 05:26:32;;;;;;;8.95;4.70;;;;;;;6.67;61.95;93815.78;5411907;26;19996;-73
2024/04/18 05:31:46;;;;;;;4.05;3.13;;;;;;;6.78;60.81;93822.44;5411054;26;20045;-73
2024/04/18 05:34:12;;;;;;;4.63;3.58;;;;;;;6.78;61.17;93821.66;5409920;26;20024;-72
2024/04/18 05:36:37;;;;;;;5.00;3.80;;;;;;;6.79;61.35;93821.22;5410193;26;20434;-73
2024/04/18 05:39:03;;;;;;;5.82;4.20;;;;;;;6.86;61.41;93820.97;5411718;26;19995;-73
2024/04/18 05:41:29;;;;;;;5.65;3.70;;;;;;;6.92;61.54;93826.66;5410509;26;20000;-73
2024/04/18 05:43:54;;;;;;;5.63;3.75;;;;;;;6.97;60.87;93823.38;5412143;26;20014;-73
2024/04/18 05:46:20;;;;;;;5.43;3.53;;;;;;;6.93;61.06;93809.06;5411874;26;20006;-73
2024/04/18 05:48:45;;;;;;;5.15;3.72;;;;;;;7.07;61.27;93825.00;5412279;26;20006;-73
2024/04/18 05:51:11;;;;;;;6.75;3.92;;;;;;;7.16;60.96;93818.84;5411333;26;20004;-74
2024/04/18 05:53:36;;;;;;;4.50;3.47;;;;;;;7.26;59.64;93831.38;5411545;26;19999;-73
2024/04/18 05:56:02;;;;;;;5.22;3.50;;;;;;;7.28;59.92;93822.75;5411314;26;20430;-73
2024/04/18 05:58:29;;;;;;;4.90;3.22;;;;;;;7.40;59.09;93828.19;5411609;26;20007;-72
2024/04/18 06:00:54;;;;;;;4.10;3.10;;;;;;;7.32;58.73;93809.72;5409788;26;19996;-72
2024/04/18 06:03:20;;;;;;;4.20;3.10;;;;;;;7.47;58.64;93820.94;5409771;26;20439;-73
2024/04/18 06:05:45;;;;;;;6.55;3.22;;;;;;;7.53;58.61;93832.84;5411422;26;20018;-72
2024/04/18 06:08:11;;;;;;;3.97;3.20;;;;;;;7.52;58.72;93831.31;5410851;26;20341;-72
2024/04/18 06:10:37;;;;;;;4.03;3.03;;;;;;;7.59;58.94;93831.81;5411427;26;20516;-71
2024/04/18 06:13:03;;;;;;;4.32;3.42;;;;;;;7.64;59.00;93823.06;5409740;26;19999;-72
2024/04/18 06:15:28;;;;;;;5.00;3.80;;;;;;;7.66;58.92;93822.59;5410894;26;19999;-72
2024/04/18 06:17:54;;;;;;;6.10;3.33;;;;;;;7.64;58.70;93814.09;5410720;26;20002;-72
2024/04/18 06:20:21;;;;;;;6.15;3.88;;;;;;;7.70;59.00;93812.31;5412023;26;20272;-72
2024/04/18 06:22:48;;;;;;;4.28;3.15;;;;;;;7.83;57.71;93812.22;5410799;26;19995;-71
2024/04/18 06:25:16;;;;;;;4.55;3.10;;;;;;;7.87;56.28;93816.38;5410146;26;20023;-72
2024/04/18 06:27:41;;;;;;;4.90;2.85;;;;;;;7.93;56.49;93814.59;5411452;26;19995;-72
2024/04/18 06:30:07;;;;;;;4.05;3.05;;;;;;;7.98;56.25;93814.00;5410726;26;20007;-71
2024/04/18 06:32:33;;;;;;;5.95;3.40;;;;;;;8.10;56.55;93814.38;5411385;26;19995;-72
2024/04/18 06:34:58;;;;;;;3.97;2.65;;;;;;;8.12;56.20;93820.94;5409373;26;20421;-72
2024/04/18 06:37:25;;;;;;;3.42;2.53;;;;;;;8.22;55.93;93822.50;5411421;26;19999;-73
2024/04/18 06:39:51;;;;;;;4.30;3.40;;;;;;;8.23;55.96;93824.03;5410522;26;20034;-73
2024/04/18 06:42:16;;;;;;;5.57;3.20;;;;;;;8.25;55.98;93831.78;5405937;26;19995;-81
2024/04/18 06:44:42;;;;;;;5.38;3.70;;;;;;;8.32;56.43;93831.53;5379135;26;20006;-72
2024/04/18 06:47:07;;;;;;;2.80;2.38;;;;;;;8.44;55.49;93835.44;5408938;26;19999;-72
2024/04/18 06:49:32;;;;;;;3.80;3.00;;;;;;;8.46;55.25;93831.00;5410897;26;20010;-72
2024/04/18 06:51:58;;;;;;;3.50;2.60;;;;;;;8.61;54.37;93841.44;5410344;26;20007;-73
2024/04/18 06:54:24;;;;;;;3.40;2.30;;;;;;;8.65;54.38;93831.09;5409325;26;20007;-71
2024/04/18 06:56:49;;;;;;;3.75;2.20;;;;;;;8.72;54.16;93836.31;5409932;26;20038;-72
2024/04/18 06:59:15;;;;;;;4.43;2.67;;;;;;;8.76;54.03;93845.91;5411327;26;20084;-72
2024/04/18 07:01:40;;;;;;;3.90;2.28;;;;;;;8.80;52.83;93853.22;5410259;26;20449;-71
2024/04/18 07:04:05;;;;;;;3.00;2.13;;;;;;;8.89;51.91;93845.03;5410461;26;20000;-76
2024/04/18 07:06:31;;;;;;;4.65;2.15;;;;;;;8.92;52.41;93838.66;5410686;26;20007;-72
2024/04/18 07:08:56;;;;;;;3.50;2.15;;;;;;;8.98;52.37;93845.81;5409815;26;20004;-72
2024/04/18 07:11:22;;;;;;;3.17;2.22;;;;;;;9.08;51.96;93846.63;5410801;26;20027;-71
2024/04/18 07:13:48;;;;;;;3.10;1.95;;;;;;;9.20;50.50;93848.47;5409569;26;20010;-72
2024/04/18 07:16:14;;;;;;;2.70;2.00;;;;;;;9.27;50.62;93853.66;5410753;26;20000;-73
2024/04/18 07:18:39;;;;;;;3.92;2.35;;;;;;;9.33;50.41;93853.81;5409563;26;20011;-72
2024/04/18 07:21:04;;;;;;;2.63;1.80;;;;;;;9.34;49.73;93857.31;5408955;26;20006;-72
2024/04/18 07:23:30;;;;;;;2.83;1.95;;;;;;;9.26;49.75;93862.34;5410089;26;20435;-72
2024/04/18 07:25:55;;;;;;;3.78;2.22;;;;;;;9.20;49.53;93864.16;5409784;26;19999;-72
2024/04/18 07:28:21;;;;;;;1.90;1.70;;;;;;;9.17;47.92;93863.06;5410712;26;20458;-71
2024/04/18 07:30:46;;;;;;;5.88;2.25;;;;;;;9.12;48.67;93862.91;5407919;26;20004;-72
2024/04/18 07:33:11;;;;;;;2.38;1.60;;;;;;;9.16;49.31;93871.75;5410740;26;20007;-72
2024/04/18 07:35:37;;;;;;;2.42;1.95;;;;;;;9.18;48.94;93866.59;5408057;26;20010;-72
2024/04/18 07:38:03;;;;;;;2.80;1.95;;;;;;;9.21;48.24;93866.44;5410121;26;20390;-73
2024/04/18 07:40:29;;;;;;;2.47;1.83;;;;;;;9.28;48.44;93866.16;5408022;26;19995;-72
2024/04/18 07:42:54;;;;;;;2.72;2.03;;;;;;;9.30;48.57;93860.97;5409692;26;20007;-72
2024/04/18 07:45:20;;;;;;;2.55;1.85;;;;;;;9.52;47.55;93871.84;5409816;26;20010;-72
2024/04/18 07:47:45;;;;;;;4.28;1.52;;;;;;;9.63;46.83;93860.41;5408792;26;20007;-73
2024/04/18 07:50:11;;;;;;;2.95;1.63;;;;;;;9.66;46.50;93867.72;5410259;26;20073;-72
2024/04/18 07:52:37;;;;;;;2.83;1.60;;;;;;;9.75;46.40;93878.72;5409220;26;19996;-72
2024/04/18 07:55:02;;;;;;;2.15;1.80;;;;;;;9.62;47.26;93880.06;5407673;26;20425;-72
2024/04/18 07:57:28;;;;;;;3.92;1.92;;;;;;;9.64;47.33;93894.88;5409131;26;20002;-73
2024/04/18 07:59:53;;;;;;;4.10;1.77;;;;;;;9.64;47.98;93900.38;5408188;26;20007;-73
2024/04/18 08:02:19;;;;;;;2.72;2.00;;;;;;;9.57;48.70;93904.13;5409338;26;20000;-72
2024/04/18 08:04:44;;;;;;;4.10;1.80;;;;;;;9.57;47.30;93898.66;5409766;26;20419;-71
2024/04/18 08:07:10;;;;;;;2.60;1.90;;;;;;;9.60;47.42;93905.22;5409374;26;20420;-73
2024/04/18 08:09:35;;;;;;;2.63;2.17;;;;;;;9.55;48.31;93895.59;5408898;26;20384;-72
2024/04/18 08:12:02;;;;;;;2.40;2.00;;;;;;;9.63;48.15;93914.50;5409259;26;20398;-73
2024/04/18 08:14:27;;;;;;;3.83;2.00;;;;;;;9.57;48.24;93904.13;5408593;26;20084;-72
2024/04/18 08:16:53;;;;;;;3.75;2.20;;;;;;;9.63;47.78;93920.75;5409136;26;20015;-72
2024/04/18 08:19:18;;;;;;;3.00;2.00;;;;;;;9.58;48.02;93907.66;5408774;26;20045;-72
2024/04/18 08:21:43;;;;;;;4.20;1.98;;;;;;;9.67;48.10;93926.13;5409681;26;19999;-72
2024/04/18 08:24:18;;;;;;;3.88;1.90;;;;;;;9.76;46.51;93920.66;5408661;26;19999;-72
2024/04/18 08:26:43;;;;;;;2.80;1.85;;;;;;;9.72;46.07;93920.78;5409215;26;20007;-73
2024/04/18 08:29:09;;;;;;;2.88;2.17;;;;;;;9.78;46.55;93942.91;5409022;26;19992;-72
2024/04/18 08:31:36;;;;;;;2.40;1.80;;;;;;;9.68;46.85;93933.13;5408813;26;20011;-72
2024/04/18 08:34:03;;;;;;;2.60;1.80;;;;;;;9.72;46.65;93941.97;5409134;26;20004;-72
2024/04/18 08:36:29;;;;;;;3.03;2.10;;;;;;;9.66;46.86;93941.81;5409609;26;20418;-72
2024/04/18 08:38:54;;;;;;;3.65;2.33;;;;;;;9.65;47.63;93945.03;5413583;26;20006;-71
2024/04/18 08:41:20;;;;;;;3.15;2.33;;;;;;;9.64;46.99;93947.00;5412476;26;20072;-73
2024/04/18 08:43:47;;;;;;;5.60;2.45;;;;;;;9.58;47.94;93946.84;5413175;26;19999;-72
2024/04/18 08:46:13;;;;;;;4.28;2.50;;;;;;;9.70;48.11;93950.69;5411094;26;20003;-72
2024/04/18 08:48:38;;;;;;;4.47;2.25;;;;;;;9.65;48.67;93954.03;5410293;26;20480;-71
2024/04/18 08:51:06;;;;;;;3.33;2.40;;;;;;;9.56;49.11;93946.53;5410455;26;20039;-71
2024/04/18 08:53:32;;;;;;;4.65;3.95;;;;;;;9.48;49.76;93950.00;5407996;26;20007;-71
2024/04/18 08:55:59;;;;;;;3.35;2.83;;;;;;;9.43;50.27;93950.59;5410922;26;20422;-71
2024/04/18 08:58:25;;;;;;;4.07;3.20;;;;;;;9.31;50.83;93960.47;5410513;26;20069;-71
2024/04/18 09:00:50;;;;;;;4.32;3.05;;;;;;;9.20;51.08;93955.41;5410064;26;20007;-72
2024/04/18 09:03:16;;;;;;;5.20;3.28;;;;;;;9.27;50.76;93951.63;5407426;26;20113;-73
2024/04/18 09:05:44;;;;;;;6.00;3.50;;;;;;;9.27;50.45;93944.16;5410066;26;20010;-71
2024/04/18 09:08:12;;;;;;;4.07;2.65;;;;;;;9.32;49.83;93945.53;5411142;26;20014;-71
2024/04/18 09:10:39;;;;;;;4.18;3.00;;;;;;;9.39;49.39;93952.72;5411076;26;19996;-73
2024/04/18 09:13:05;;;;;;;4.53;3.60;;;;;;;9.48;48.70;93953.53;5380302;26;19995;-73
2024/04/18 09:15:30;;;;;;;5.15;3.83;;;;;;;9.63;49.24;93956.44;5407429;26;20363;-82
2024/04/18 09:18:04;;;;;;;5.43;3.92;;;;;;;9.83;48.81;93943.06;5412871;26;20334;-74
2024/04/18 09:20:31;;;;;;;4.97;3.22;;;;;;;10.04;47.67;93946.16;5412199;26;19996;-74
2024/04/18 09:22:56;;;;;;;4.10;2.67;;;;;;;10.23;47.94;93930.41;5409799;26;20042;-75
2024/04/18 09:25:22;;;;;;;5.47;2.42;;;;;;;10.52;46.70;93943.69;5412347;26;20010;-74
2024/04/18 09:27:50;;;;;;;3.60;2.00;;;;;;;10.68;44.44;93942.59;5409656;26;20009;-74
2024/04/18 09:30:15;;;;;;;2.83;2.10;;;;;;;10.80;42.95;93956.16;5409523;26;20004;-72
2024/04/18 09:32:41;;;;;;;2.58;2.05;;;;;;;10.82;43.37;93948.22;5411733;26;20080;-74
2024/04/18 09:35:10;;;;;;;3.38;2.60;;;;;;;11.00;43.01;93941.91;5410755;26;20007;-72
2024/04/18 09:37:40;;;;;;;3.97;2.40;;;;;;;11.21;42.83;93939.38;5409320;26;20103;-73
2024/04/18 09:40:09;;;;;;;4.60;2.65;;;;;;;11.36;42.35;93945.75;5410907;26;19996;-73
2024/04/18 09:42:40;;;;;;;3.97;2.65;;;;;;;11.54;42.64;93953.16;5410443;26;20003;-73
2024/04/18 09:45:06;;;;;;;4.43;2.38;;;;;;;11.79;42.05;93955.44;5411508;26;19995;-73
2024/04/18 09:47:33;;;;;;;2.97;2.40;;;;;;;12.02;41.94;93962.22;5410152;26;19996;-73
2024/04/18 09:49:59;;;;;;;3.20;2.10;;;;;;;12.28;40.56;93962.50;5409572;26;20014;-73
2024/04/18 09:52:24;;;;;;;1.98;1.60;;;;;;;12.55;40.43;93958.72;5410213;26;20421;-74
2024/04/18 09:54:51;;;;;;;2.03;1.70;;;;;;;12.75;40.46;93955.34;5410071;26;20076;-73
2024/04/18 09:57:18;;;;;;;2.45;2.03;;;;;;;13.01;39.73;93967.31;5410251;26;19995;-73
2024/04/18 09:59:44;;;;;;;3.58;1.73;;;;;;;13.34;38.29;93951.81;5410169;26;20000;-72
2024/04/18 10:02:11;;;;;;;2.35;1.80;;;;;;;13.52;37.30;93946.81;5409731;26;20024;-73
2024/04/18 10:04:38;;;;;;;6.40;2.95;;;;;;;13.78;34.72;93944.19;5411879;26;20007;-73
2024/04/18 10:07:04;;;;;;;2.42;1.90;;;;;;;13.85;35.14;93948.56;5409632;26;19999;-73
2024/04/18 10:09:31;;;;;;;4.60;2.35;;;;;;;13.65;38.25;93951.25;5410437;26;20072;-74
2024/04/18 10:11:57;;;;;;;3.92;2.40;;;;;;;13.64;39.40;93952.50;5409732;26;20027;-75
2024/04/18 10:14:22;;;;;;;6.57;2.47;;;;;;;13.60;40.41;93960.25;5410038;26;20472;-73
2024/04/18 10:16:49;;;;;;;4.18;2.60;;;;;;;13.70;40.27;93956.88;5411665;26;20010;-74
2024/04/18 10:19:22;;;;;;;4.90;2.47;;;;;;;13.74;39.81;93951.16;5411282;26;19999;-73
2024/04/18 10:21:57;;;;;;;4.22;2.33;;;;;;;13.88;39.48;93953.13;5411842;26;20125;-74
2024/04/18 10:24:30;;;;;;;4.15;2.60;;;;;;;13.75;39.28;93960.97;5410926;26;20007;-73
2024/04/18 10:27:00;;;;;;;3.67;2.70;;;;;;;13.83;38.66;93953.81;5412412;26;20069;-73
2024/04/18 10:29:28;;;;;;;7.30;3.47;;;;;;;14.01;39.03;93955.53;5411046;26;20037;-74
2024/04/18 10:31:57;;;;;;;5.15;2.92;;;;;;;13.97;38.74;93960.50;5411572;26;19995;-73
2024/04/18 10:34:23;;;;;;;3.80;2.30;;;;;;;13.94;38.83;93964.25;5409696;26;20024;-73
2024/04/18 10:36:49;;;;;;;5.00;3.50;;;;;;;13.75;38.85;93955.44;5409021;26;20029;-73
2024/04/18 10:39:31;;;;;;;5.53;2.85;;;;;;;13.77;38.88;93972.31;5409829;26;20006;-74
2024/04/18 10:42:03;;;;;;;3.28;2.40;;;;;;;13.57;39.11;93969.50;5410699;26;20072;-73
2024/04/18 10:44:29;;;;;;;3.30;2.58;;;;;;;13.44;39.94;93959.50;5411634;26;20010;-74
2024/04/18 10:46:54;;;;;;;3.45;2.55;;;;;;;13.62;40.38;93952.25;5409128;26;20016;-73
2024/04/18 10:49:21;;;;;;;4.32;2.25;;;;;;;13.84;40.60;93960.09;5410826;26;20003;-73
2024/04/18 10:51:47;;;;;;;3.65;2.80;;;;;;;13.96;39.90;93964.53;5410801;26;19999;-74
2024/04/18 10:54:14;;;;;;;3.42;2.10;;;;;;;14.04;39.59;93962.84;5410248;26;20040;-73
2024/04/18 10:56:39;;;;;;;4.68;2.60;;;;;;;13.89;38.92;93960.16;5410670;26;20010;-73
2024/04/18 10:59:07;;;;;;;3.35;2.13;;;;;;;13.67;38.98;93957.09;5409120;26;20430;-74
2024/04/18 11:01:37;;;;;;;2.60;2.03;;;;;;;13.71;39.54;93957.66;5408989;26;20006;-74
2024/04/18 11:04:03;;;;;;;3.38;2.65;;;;;;;13.81;39.37;93970.84;5410440;26;20015;-73
2024/04/18 11:06:28;;;;;;;3.58;2.20;;;;;;;13.84;39.02;93952.56;5410155;26;20374;-73
2024/04/18 11:08:54;;;;;;;3.95;1.95;;;;;;;14.03;37.39;93972.38;5410913;26;20011;-73
2024/04/18 11:11:24;;;;;;;3.55;2.35;;;;;;;14.11;36.42;93969.97;5410437;26;19995;-74
2024/04/18 11:13:50;;;;;;;2.70;2.15;;;;;;;14.11;37.14;93975.50;5408522;26;19995;-74
2024/04/18 11:16:15;;;;;;;3.08;1.92;;;;;;;14.05;38.05;93973.44;5409619;26;20072;-72
2024/04/18 11:18:41;;;;;;;2.42;2.03;;;;;;;13.94;38.41;93976.06;5408887;26;20388;-73
2024/04/18 11:21:07;;;;;;;3.88;2.08;;;;;;;13.76;39.15;93979.03;5410104;26;20027;-74
2024/04/18 11:23:33;;;;;;;3.38;2.42;;;;;;;13.71;38.43;93985.28;5410031;26;20370;-73
2024/04/18 11:25:59;;;;;;;3.92;2.90;;;;;;;13.64;38.78;93980.13;5410629;26;20004;-73
2024/04/18 11:28:24;;;;;;;3.47;2.22;;;;;;;13.60;38.63;93996.91;5408565;26;19996;-74
2024/04/18 11:30:50;;;;;;;3.88;2.55;;;;;;;13.46;38.08;94005.97;5409843;26;20421;-73
2024/04/18 11:33:22;;;;;;;4.03;2.42;;;;;;;13.49;37.85;93996.75;5408250;26;20011;-72
2024/04/18 11:35:48;;;;;;;4.50;3.17;;;;;;;13.38;38.37;94004.84;5410283;26;20421;-73